sensor_id;sensor_type;location;lat;lon;timestamp;temperature;humidity
21047;DHT22;10682;50.874;3.656;2023-03-21T00:01:50;10.40;99.90
21047;DHT22;10682;50.874;3.656;2023-03-21T00:04:18;10.40;99.90
21047;DHT22;10682;50.874;3.656;2023-03-21T00:06:46;10.40;99.90
21047;DHT22;10682;50.874;3.656;2023-03-21T00:09:12;10.40;99.90
21047;DHT22;10682;50.874;3.656;2023-03-21T00:11:40;10.50;99.90
21047;DHT22;10682;50.874;3.656;2023-03-21T00:14:07;10.40;99.90
21047;DHT22;10682;50.874;3.656;2023-03-21T00:16:34;10.40;99.90
21047;DHT22;10682;50.874;3.656;2023-03-21T00:19:03;10.40;99.90
21047;DHT22;10682;50.874;3.656;2023-03-21T00:21:32;10.40;99.90
21047;DHT22;10682;50.874;3.656;2023-03-21T00:24:21;10.50;99.90
21047;DHT22;10682;50.874;3.656;2023-03-21T00:26:49;10.50;99.90
21047;DHT22;10682;50.874;3.656;2023-03-21T00:29:17;10.40;99.90
21047;DHT22;10682;50.874;3.656;2023-03-21T00:31:44;10.40;99.90
21047;DHT22;10682;50.874;3.656;2023-03-21T00:34:11;10.40;99.90
21047;DHT22;10682;50.874;3.656;2023-03-21T00:36:43;10.40;99.90
21047;DHT22;10682;50.874;3.656;2023-03-21T00:39:10;10.40;99.90
21047;DHT22;10682;50.874;3.656;2023-03-21T00:41:37;10.40;99.90
21047;DHT22;10682;50.874;3.656;2023-03-21T00:44:12;10.40;99.90
21047;DHT22;10682;50.874;3.656;2023-03-21T00:46:41;10.30;99.90
21047;DHT22;10682;50.874;3.656;2023-03-21T00:49:22;10.30;99.90
21047;DHT22;10682;50.874;3.656;2023-03-21T00:51:49;10.30;99.90
21047;DHT22;10682;50.874;3.656;2023-03-21T00:54:17;10.20;99.90
21047;DHT22;10682;50.874;3.656;2023-03-21T00:56:44;10.30;99.90
21047;DHT22;10682;50.874;3.656;2023-03-21T00:59:11;10.30;99.90
21047;DHT22;10682;50.874;3.656;2023-03-21T01:01:38;10.30;99.90
21047;DHT22;10682;50.874;3.656;2023-03-21T01:04:05;10.40;99.90
21047;DHT22;10682;50.874;3.656;2023-03-21T01:06:40;10.40;99.90
21047;DHT22;10682;50.874;3.656;2023-03-21T01:09:15;10.40;99.90
21047;DHT22;10682;50.874;3.656;2023-03-21T01:11:44;10.50;99.90
21047;DHT22;10682;50.874;3.656;2023-03-21T01:14:13;10.50;99.90
21047;DHT22;10682;50.874;3.656;2023-03-21T01:16:50;10.50;99.90
21047;DHT22;10682;50.874;3.656;2023-03-21T01:19:20;10.50;99.90
21047;DHT22;10682;50.874;3.656;2023-03-21T01:21:58;10.50;99.90
21047;DHT22;10682;50.874;3.656;2023-03-21T01:24:26;10.50;99.90
21047;DHT22;10682;50.874;3.656;2023-03-21T01:26:53;10.50;99.90
21047;DHT22;10682;50.874;3.656;2023-03-21T01:29:20;10.50;99.90
21047;DHT22;10682;50.874;3.656;2023-03-21T01:31:47;10.50;99.90
21047;DHT22;10682;50.874;3.656;2023-03-21T01:34:14;10.60;99.90
21047;DHT22;10682;50.874;3.656;2023-03-21T01:36:41;10.60;99.90
21047;DHT22;10682;50.874;3.656;2023-03-21T01:39:08;10.60;99.90
21047;DHT22;10682;50.874;3.656;2023-03-21T01:41:38;10.70;99.90
21047;DHT22;10682;50.874;3.656;2023-03-21T01:44:17;10.70;99.90
21047;DHT22;10682;50.874;3.656;2023-03-21T01:46:49;10.70;99.90
21047;DHT22;10682;50.874;3.656;2023-03-21T01:49:44;10.80;99.90
21047;DHT22;10682;50.874;3.656;2023-03-21T01:52:19;10.80;99.90
21047;DHT22;10682;50.874;3.656;2023-03-21T01:55:09;10.80;99.90
21047;DHT22;10682;50.874;3.656;2023-03-21T01:57:43;10.80;99.90
21047;DHT22;10682;50.874;3.656;2023-03-21T02:00:31;10.80;99.90
21047;DHT22;10682;50.874;3.656;2023-03-21T02:03:00;10.80;99.90
21047;DHT22;10682;50.874;3.656;2023-03-21T02:06:01;10.70;99.90
21047;DHT22;10682;50.874;3.656;2023-03-21T02:08:32;10.80;99.90
21047;DHT22;10682;50.874;3.656;2023-03-21T02:11:07;10.80;99.90
21047;DHT22;10682;50.874;3.656;2023-03-21T02:13:35;10.90;99.90
21047;DHT22;10682;50.874;3.656;2023-03-21T02:16:17;10.90;99.90
21047;DHT22;10682;50.874;3.656;2023-03-21T02:19:09;10.90;99.90
21047;DHT22;10682;50.874;3.656;2023-03-21T02:22:25;10.90;99.90
21047;DHT22;10682;50.874;3.656;2023-03-21T02:37:15;10.80;99.90
21047;DHT22;10682;50.874;3.656;2023-03-21T02:40:21;10.80;99.90
21047;DHT22;10682;50.874;3.656;2023-03-21T02:42:58;10.70;99.90
21047;DHT22;10682;50.874;3.656;2023-03-21T02:48:45;10.70;99.90
21047;DHT22;10682;50.874;3.656;2023-03-21T02:51:31;10.80;99.90
21047;DHT22;10682;50.874;3.656;2023-03-21T02:54:12;10.80;99.90
21047;DHT22;10682;50.874;3.656;2023-03-21T02:57:01;10.80;99.90
21047;DHT22;10682;50.874;3.656;2023-03-21T02:59:31;10.80;99.90
21047;DHT22;10682;50.874;3.656;2023-03-21T03:02:03;10.80;99.90
21047;DHT22;10682;50.874;3.656;2023-03-21T03:04:31;10.80;99.90
21047;DHT22;10682;50.874;3.656;2023-03-21T03:18:59;10.90;99.90
21047;DHT22;10682;50.874;3.656;2023-03-21T03:24:26;11.00;99.90
21047;DHT22;10682;50.874;3.656;2023-03-21T03:29:33;11.00;99.90
21047;DHT22;10682;50.874;3.656;2023-03-21T03:32:26;11.10;99.90
21047;DHT22;10682;50.874;3.656;2023-03-21T03:34:56;11.10;99.90
21047;DHT22;10682;50.874;3.656;2023-03-21T03:37:27;11.10;99.90
21047;DHT22;10682;50.874;3.656;2023-03-21T03:42:43;11.10;99.90
21047;DHT22;10682;50.874;3.656;2023-03-21T03:45:13;11.10;99.90
21047;DHT22;10682;50.874;3.656;2023-03-21T03:47:53;11.10;99.90
21047;DHT22;10682;50.874;3.656;2023-03-21T03:50:41;11.10;99.90
21047;DHT22;10682;50.874;3.656;2023-03-21T03:53:41;11.00;99.90
21047;DHT22;10682;50.874;3.656;2023-03-21T03:56:08;11.00;99.90
21047;DHT22;10682;50.874;3.656;2023-03-21T03:58:37;11.00;99.90
21047;DHT22;10682;50.874;3.656;2023-03-21T04:01:12;11.00;99.90
21047;DHT22;10682;50.874;3.656;2023-03-21T04:03:41;10.90;99.90
21047;DHT22;10682;50.874;3.656;2023-03-21T04:06:17;10.90;99.90
21047;DHT22;10682;50.874;3.656;2023-03-21T04:08:45;10.90;99.90
21047;DHT22;10682;50.874;3.656;2023-03-21T04:11:13;10.80;99.90
21047;DHT22;10682;50.874;3.656;2023-03-21T04:13:43;10.80;99.90
21047;DHT22;10682;50.874;3.656;2023-03-21T04:16:10;10.80;99.90
21047;DHT22;10682;50.874;3.656;2023-03-21T04:18:39;10.70;99.90
21047;DHT22;10682;50.874;3.656;2023-03-21T04:21:09;10.70;99.90
21047;DHT22;10682;50.874;3.656;2023-03-21T04:23:39;10.60;99.90
21047;DHT22;10682;50.874;3.656;2023-03-21T04:26:07;10.60;99.90
21047;DHT22;10682;50.874;3.656;2023-03-21T04:28:34;10.60;99.90
21047;DHT22;10682;50.874;3.656;2023-03-21T04:31:06;10.60;99.90
21047;DHT22;10682;50.874;3.656;2023-03-21T04:33:51;10.50;99.90
21047;DHT22;10682;50.874;3.656;2023-03-21T04:36:22;10.50;99.90
21047;DHT22;10682;50.874;3.656;2023-03-21T04:39:05;10.50;99.90
21047;DHT22;10682;50.874;3.656;2023-03-21T04:41:39;10.40;99.90
21047;DHT22;10682;50.874;3.656;2023-03-21T04:44:07;10.40;99.90
21047;DHT22;10682;50.874;3.656;2023-03-21T04:46:34;10.40;99.90
21047;DHT22;10682;50.874;3.656;2023-03-21T04:49:02;10.40;99.90
21047;DHT22;10682;50.874;3.656;2023-03-21T04:51:30;10.40;99.90
21047;DHT22;10682;50.874;3.656;2023-03-21T04:53:57;10.40;99.90
21047;DHT22;10682;50.874;3.656;2023-03-21T04:56:25;10.40;99.90
21047;DHT22;10682;50.874;3.656;2023-03-21T04:58:59;10.40;99.90
21047;DHT22;10682;50.874;3.656;2023-03-21T05:01:28;10.30;99.90
21047;DHT22;10682;50.874;3.656;2023-03-21T05:04:00;10.30;99.90
21047;DHT22;10682;50.874;3.656;2023-03-21T05:06:29;10.20;99.90
21047;DHT22;10682;50.874;3.656;2023-03-21T05:08:58;10.20;99.90
21047;DHT22;10682;50.874;3.656;2023-03-21T05:11:27;10.20;99.90
21047;DHT22;10682;50.874;3.656;2023-03-21T05:14:00;10.20;99.90
21047;DHT22;10682;50.874;3.656;2023-03-21T05:16:27;10.20;99.90
21047;DHT22;10682;50.874;3.656;2023-03-21T05:18:57;10.20;99.90
21047;DHT22;10682;50.874;3.656;2023-03-21T05:21:31;10.10;99.90
21047;DHT22;10682;50.874;3.656;2023-03-21T05:24:08;10.10;99.90
21047;DHT22;10682;50.874;3.656;2023-03-21T05:26:41;10.10;99.90
21047;DHT22;10682;50.874;3.656;2023-03-21T05:29:09;10.20;99.90
21047;DHT22;10682;50.874;3.656;2023-03-21T05:31:37;10.20;99.90
21047;DHT22;10682;50.874;3.656;2023-03-21T05:34:04;10.20;99.90
21047;DHT22;10682;50.874;3.656;2023-03-21T05:36:55;10.20;99.90
21047;DHT22;10682;50.874;3.656;2023-03-21T05:39:22;10.10;99.90
21047;DHT22;10682;50.874;3.656;2023-03-21T05:41:49;10.10;99.90
21047;DHT22;10682;50.874;3.656;2023-03-21T05:44:16;10.10;99.90
21047;DHT22;10682;50.874;3.656;2023-03-21T05:46:43;10.10;99.90
21047;DHT22;10682;50.874;3.656;2023-03-21T05:49:11;10.10;99.90
21047;DHT22;10682;50.874;3.656;2023-03-21T05:51:38;10.10;99.90
21047;DHT22;10682;50.874;3.656;2023-03-21T05:54:05;10.10;99.90
21047;DHT22;10682;50.874;3.656;2023-03-21T05:56:33;10.20;99.90
21047;DHT22;10682;50.874;3.656;2023-03-21T05:59:00;10.20;99.90
21047;DHT22;10682;50.874;3.656;2023-03-21T06:01:27;10.20;99.90
21047;DHT22;10682;50.874;3.656;2023-03-21T06:03:54;10.30;99.90
21047;DHT22;10682;50.874;3.656;2023-03-21T06:06:21;10.30;99.90
21047;DHT22;10682;50.874;3.656;2023-03-21T06:08:48;10.30;99.90
21047;DHT22;10682;50.874;3.656;2023-03-21T06:11:23;10.40;99.90
21047;DHT22;10682;50.874;3.656;2023-03-21T06:13:52;10.40;99.90
21047;DHT22;10682;50.874;3.656;2023-03-21T06:16:19;10.40;99.90
21047;DHT22;10682;50.874;3.656;2023-03-21T06:18:46;10.40;99.90
21047;DHT22;10682;50.874;3.656;2023-03-21T06:21:13;10.40;99.90
21047;DHT22;10682;50.874;3.656;2023-03-21T06:23:40;10.40;99.90
21047;DHT22;10682;50.874;3.656;2023-03-21T06:26:08;10.40;99.90
21047;DHT22;10682;50.874;3.656;2023-03-21T06:28:35;10.50;99.90
21047;DHT22;10682;50.874;3.656;2023-03-21T06:31:02;10.50;99.90
21047;DHT22;10682;50.874;3.656;2023-03-21T06:33:29;10.50;99.90
21047;DHT22;10682;50.874;3.656;2023-03-21T06:35:57;10.50;99.90
21047;DHT22;10682;50.874;3.656;2023-03-21T06:38:25;10.50;99.90
21047;DHT22;10682;50.874;3.656;2023-03-21T06:40:52;10.60;99.90
21047;DHT22;10682;50.874;3.656;2023-03-21T06:43:19;10.60;99.90
21047;DHT22;10682;50.874;3.656;2023-03-21T06:45:46;10.60;99.90
21047;DHT22;10682;50.874;3.656;2023-03-21T06:48:13;10.60;99.90
21047;DHT22;10682;50.874;3.656;2023-03-21T06:50:40;10.60;99.90
21047;DHT22;10682;50.874;3.656;2023-03-21T06:53:08;10.60;99.90
21047;DHT22;10682;50.874;3.656;2023-03-21T06:55:35;10.70;99.90
21047;DHT22;10682;50.874;3.656;2023-03-21T06:58:02;10.70;99.90
21047;DHT22;10682;50.874;3.656;2023-03-21T07:00:29;10.70;99.90
21047;DHT22;10682;50.874;3.656;2023-03-21T07:02:57;10.70;99.90
21047;DHT22;10682;50.874;3.656;2023-03-21T07:05:25;10.70;99.90
21047;DHT22;10682;50.874;3.656;2023-03-21T07:07:52;10.70;99.90
21047;DHT22;10682;50.874;3.656;2023-03-21T07:10:19;10.80;99.90
21047;DHT22;10682;50.874;3.656;2023-03-21T07:12:46;10.80;99.90
21047;DHT22;10682;50.874;3.656;2023-03-21T07:15:13;10.80;99.90
21047;DHT22;10682;50.874;3.656;2023-03-21T07:17:40;10.80;99.90
21047;DHT22;10682;50.874;3.656;2023-03-21T07:20:08;10.80;99.90
21047;DHT22;10682;50.874;3.656;2023-03-21T07:22:38;10.80;99.90
21047;DHT22;10682;50.874;3.656;2023-03-21T07:25:06;10.80;99.90
21047;DHT22;10682;50.874;3.656;2023-03-21T07:27:33;10.90;99.90
21047;DHT22;10682;50.874;3.656;2023-03-21T07:30:01;10.90;99.90
21047;DHT22;10682;50.874;3.656;2023-03-21T07:32:33;10.90;99.90
21047;DHT22;10682;50.874;3.656;2023-03-21T07:35:01;11.00;99.90
21047;DHT22;10682;50.874;3.656;2023-03-21T07:37:28;11.00;99.90
21047;DHT22;10682;50.874;3.656;2023-03-21T07:39:56;11.00;99.90
21047;DHT22;10682;50.874;3.656;2023-03-21T07:42:23;11.10;99.90
21047;DHT22;10682;50.874;3.656;2023-03-21T07:44:50;11.10;99.90
21047;DHT22;10682;50.874;3.656;2023-03-21T07:47:18;11.10;99.90
21047;DHT22;10682;50.874;3.656;2023-03-21T07:49:45;11.10;99.90
21047;DHT22;10682;50.874;3.656;2023-03-21T07:52:12;11.20;99.90
21047;DHT22;10682;50.874;3.656;2023-03-21T07:54:39;11.20;99.90
21047;DHT22;10682;50.874;3.656;2023-03-21T07:57:06;11.20;99.90
21047;DHT22;10682;50.874;3.656;2023-03-21T07:59:33;11.30;99.90
21047;DHT22;10682;50.874;3.656;2023-03-21T08:02:00;11.30;99.90
21047;DHT22;10682;50.874;3.656;2023-03-21T08:04:27;11.40;99.90
21047;DHT22;10682;50.874;3.656;2023-03-21T08:06:54;11.50;99.90
21047;DHT22;10682;50.874;3.656;2023-03-21T08:09:22;11.50;99.90
21047;DHT22;10682;50.874;3.656;2023-03-21T08:11:50;11.50;99.90
21047;DHT22;10682;50.874;3.656;2023-03-21T08:14:16;11.60;99.90
21047;DHT22;10682;50.874;3.656;2023-03-21T08:16:43;11.60;99.90
21047;DHT22;10682;50.874;3.656;2023-03-21T08:19:11;11.70;99.90
21047;DHT22;10682;50.874;3.656;2023-03-21T08:21:38;11.70;99.90
21047;DHT22;10682;50.874;3.656;2023-03-21T08:24:05;11.70;99.90
21047;DHT22;10682;50.874;3.656;2023-03-21T08:26:32;11.80;99.90
21047;DHT22;10682;50.874;3.656;2023-03-21T08:28:59;11.80;99.90
21047;DHT22;10682;50.874;3.656;2023-03-21T08:31:27;11.80;99.90
21047;DHT22;10682;50.874;3.656;2023-03-21T08:33:57;11.80;99.90
21047;DHT22;10682;50.874;3.656;2023-03-21T08:36:24;11.90;99.90
21047;DHT22;10682;50.874;3.656;2023-03-21T08:38:51;11.90;99.90
21047;DHT22;10682;50.874;3.656;2023-03-21T08:41:22;12.00;99.90
21047;DHT22;10682;50.874;3.656;2023-03-21T08:43:51;11.90;99.90
21047;DHT22;10682;50.874;3.656;2023-03-21T08:46:18;11.90;99.90
21047;DHT22;10682;50.874;3.656;2023-03-21T08:48:45;12.00;99.90
21047;DHT22;10682;50.874;3.656;2023-03-21T08:51:12;12.00;99.90
21047;DHT22;10682;50.874;3.656;2023-03-21T08:53:39;11.90;99.90
21047;DHT22;10682;50.874;3.656;2023-03-21T08:56:07;11.90;99.90
21047;DHT22;10682;50.874;3.656;2023-03-21T08:58:34;12.00;99.90
21047;DHT22;10682;50.874;3.656;2023-03-21T09:01:03;11.90;99.90
21047;DHT22;10682;50.874;3.656;2023-03-21T09:03:32;12.00;99.90
21047;DHT22;10682;50.874;3.656;2023-03-21T09:05:59;11.90;99.90
21047;DHT22;10682;50.874;3.656;2023-03-21T09:08:29;11.90;99.90
21047;DHT22;10682;50.874;3.656;2023-03-21T09:10:56;12.00;99.90
21047;DHT22;10682;50.874;3.656;2023-03-21T09:13:24;12.00;99.90
21047;DHT22;10682;50.874;3.656;2023-03-21T09:15:51;12.00;99.90
21047;DHT22;10682;50.874;3.656;2023-03-21T09:18:19;12.00;99.90
21047;DHT22;10682;50.874;3.656;2023-03-21T09:20:48;12.00;99.90
21047;DHT22;10682;50.874;3.656;2023-03-21T09:23:16;12.00;99.90
21047;DHT22;10682;50.874;3.656;2023-03-21T09:25:44;12.10;99.90
21047;DHT22;10682;50.874;3.656;2023-03-21T09:28:11;12.10;99.90
21047;DHT22;10682;50.874;3.656;2023-03-21T09:30:39;12.10;99.90
21047;DHT22;10682;50.874;3.656;2023-03-21T09:33:07;12.10;99.90
21047;DHT22;10682;50.874;3.656;2023-03-21T09:35:44;12.20;99.90
21047;DHT22;10682;50.874;3.656;2023-03-21T09:38:11;12.20;99.90
21047;DHT22;10682;50.874;3.656;2023-03-21T09:49:43;12.40;99.90
21047;DHT22;10682;50.874;3.656;2023-03-21T09:52:20;12.50;99.90
21047;DHT22;10682;50.874;3.656;2023-03-21T09:54:50;12.50;99.90
21047;DHT22;10682;50.874;3.656;2023-03-21T10:00:05;12.60;99.90
21047;DHT22;10682;50.874;3.656;2023-03-21T10:02:42;12.60;99.90
21047;DHT22;10682;50.874;3.656;2023-03-21T10:05:19;12.60;99.90
21047;DHT22;10682;50.874;3.656;2023-03-21T10:10:50;12.70;99.90
21047;DHT22;10682;50.874;3.656;2023-03-21T10:13:23;12.70;99.90
21047;DHT22;10682;50.874;3.656;2023-03-21T10:16:31;12.60;99.90
21047;DHT22;10682;50.874;3.656;2023-03-21T10:19:05;12.50;99.90
21047;DHT22;10682;50.874;3.656;2023-03-21T10:21:41;12.40;99.90
21047;DHT22;10682;50.874;3.656;2023-03-21T10:24:32;12.30;99.90
21047;DHT22;10682;50.874;3.656;2023-03-21T10:27:00;12.30;99.90
21047;DHT22;10682;50.874;3.656;2023-03-21T10:29:41;12.20;99.90
21047;DHT22;10682;50.874;3.656;2023-03-21T10:32:12;12.20;99.90
21047;DHT22;10682;50.874;3.656;2023-03-21T10:34:48;12.20;99.90
21047;DHT22;10682;50.874;3.656;2023-03-21T10:37:17;12.20;99.90
21047;DHT22;10682;50.874;3.656;2023-03-21T10:39:52;12.30;99.90
21047;DHT22;10682;50.874;3.656;2023-03-21T10:42:25;12.60;99.90
21047;DHT22;10682;50.874;3.656;2023-03-21T10:44:55;13.00;99.90
21047;DHT22;10682;50.874;3.656;2023-03-21T10:47:32;13.50;99.90
21047;DHT22;10682;50.874;3.656;2023-03-21T10:50:05;13.90;99.90
21047;DHT22;10682;50.874;3.656;2023-03-21T10:52:41;14.10;99.90
21047;DHT22;10682;50.874;3.656;2023-03-21T10:55:24;14.30;99.90
21047;DHT22;10682;50.874;3.656;2023-03-21T10:58:01;14.40;99.90
21047;DHT22;10682;50.874;3.656;2023-03-21T11:00:37;14.10;99.90
21047;DHT22;10682;50.874;3.656;2023-03-21T11:03:17;13.90;99.90
21047;DHT22;10682;50.874;3.656;2023-03-21T11:05:52;13.70;99.90
21047;DHT22;10682;50.874;3.656;2023-03-21T11:08:22;13.60;99.90
21047;DHT22;10682;50.874;3.656;2023-03-21T11:10:54;13.60;99.90
21047;DHT22;10682;50.874;3.656;2023-03-21T11:13:43;13.40;99.90
21047;DHT22;10682;50.874;3.656;2023-03-21T11:16:29;13.60;99.90
21047;DHT22;10682;50.874;3.656;2023-03-21T11:19:02;13.70;99.90
21047;DHT22;10682;50.874;3.656;2023-03-21T11:21:37;13.80;99.90
21047;DHT22;10682;50.874;3.656;2023-03-21T11:24:05;13.80;99.90
21047;DHT22;10682;50.874;3.656;2023-03-21T11:26:47;13.80;99.90
21047;DHT22;10682;50.874;3.656;2023-03-21T11:29:29;13.80;99.90
21047;DHT22;10682;50.874;3.656;2023-03-21T11:32:10;13.90;99.90
21047;DHT22;10682;50.874;3.656;2023-03-21T11:37:45;14.10;99.90
21047;DHT22;10682;50.874;3.656;2023-03-21T11:43:25;14.00;99.90
21047;DHT22;10682;50.874;3.656;2023-03-21T11:48:27;14.30;99.90
21047;DHT22;10682;50.874;3.656;2023-03-21T11:51:02;14.70;99.90
21047;DHT22;10682;50.874;3.656;2023-03-21T11:56:26;15.20;99.90
21047;DHT22;10682;50.874;3.656;2023-03-21T11:59:14;15.10;99.90
21047;DHT22;10682;50.874;3.656;2023-03-21T12:01:57;14.90;99.90
21047;DHT22;10682;50.874;3.656;2023-03-21T12:04:38;14.70;99.90
21047;DHT22;10682;50.874;3.656;2023-03-21T12:07:37;14.40;99.90
21047;DHT22;10682;50.874;3.656;2023-03-21T12:10:48;14.20;99.90
21047;DHT22;10682;50.874;3.656;2023-03-21T12:14:05;14.20;99.90
21047;DHT22;10682;50.874;3.656;2023-03-21T12:22:51;14.00;99.90
21047;DHT22;10682;50.874;3.656;2023-03-21T12:25:35;13.90;99.90
21047;DHT22;10682;50.874;3.656;2023-03-21T12:31:10;13.90;99.90
21047;DHT22;10682;50.874;3.656;2023-03-21T12:39:36;13.90;99.90
21047;DHT22;10682;50.874;3.656;2023-03-21T12:44:51;13.80;99.90
21047;DHT22;10682;50.874;3.656;2023-03-21T12:47:46;13.90;99.90
21047;DHT22;10682;50.874;3.656;2023-03-21T12:50:28;14.00;99.90
21047;DHT22;10682;50.874;3.656;2023-03-21T12:56:24;13.90;99.90
21047;DHT22;10682;50.874;3.656;2023-03-21T12:59:30;13.80;99.90
21047;DHT22;10682;50.874;3.656;2023-03-21T13:02:35;13.90;99.90
21047;DHT22;10682;50.874;3.656;2023-03-21T13:07:46;13.70;99.90
21047;DHT22;10682;50.874;3.656;2023-03-21T13:10:20;13.70;99.90
21047;DHT22;10682;50.874;3.656;2023-03-21T13:26:56;13.30;99.90
21047;DHT22;10682;50.874;3.656;2023-03-21T13:29:29;13.30;99.90
21047;DHT22;10682;50.874;3.656;2023-03-21T13:32:07;13.30;99.90
21047;DHT22;10682;50.874;3.656;2023-03-21T13:34:40;13.30;99.90
21047;DHT22;10682;50.874;3.656;2023-03-21T13:37:14;13.10;99.90
21047;DHT22;10682;50.874;3.656;2023-03-21T13:39:45;13.00;99.90
21047;DHT22;10682;50.874;3.656;2023-03-21T13:42:20;12.80;99.90
21047;DHT22;10682;50.874;3.656;2023-03-21T13:44:54;12.70;99.90
21047;DHT22;10682;50.874;3.656;2023-03-21T13:47:55;12.60;99.90
21047;DHT22;10682;50.874;3.656;2023-03-21T13:50:32;12.50;99.90
21047;DHT22;10682;50.874;3.656;2023-03-21T13:53:18;12.30;99.90
21047;DHT22;10682;50.874;3.656;2023-03-21T13:55:58;12.40;99.90
21047;DHT22;10682;50.874;3.656;2023-03-21T13:58:56;12.50;99.90
21047;DHT22;10682;50.874;3.656;2023-03-21T14:01:33;12.50;99.90
21047;DHT22;10682;50.874;3.656;2023-03-21T14:09:43;12.60;99.90
21047;DHT22;10682;50.874;3.656;2023-03-21T14:12:18;12.50;99.90
21047;DHT22;10682;50.874;3.656;2023-03-21T14:14:52;12.50;99.90
21047;DHT22;10682;50.874;3.656;2023-03-21T14:17:35;12.50;99.90
21047;DHT22;10682;50.874;3.656;2023-03-21T14:20:13;12.50;99.90
21047;DHT22;10682;50.874;3.656;2023-03-21T14:22:48;12.60;99.90
21047;DHT22;10682;50.874;3.656;2023-03-21T14:25:18;12.70;99.90
21047;DHT22;10682;50.874;3.656;2023-03-21T14:27:52;12.70;99.90
21047;DHT22;10682;50.874;3.656;2023-03-21T14:30:29;12.80;99.90
21047;DHT22;10682;50.874;3.656;2023-03-21T14:33:58;12.90;99.90
21047;DHT22;10682;50.874;3.656;2023-03-21T14:36:13;13.00;99.90
21047;DHT22;10682;50.874;3.656;2023-03-21T14:39:04;13.10;99.90
21047;DHT22;10682;50.874;3.656;2023-03-21T14:41:46;13.20;99.90
21047;DHT22;10682;50.874;3.656;2023-03-21T14:44:19;13.20;99.90
21047;DHT22;10682;50.874;3.656;2023-03-21T14:47:05;13.20;99.90
21047;DHT22;10682;50.874;3.656;2023-03-21T14:49:35;13.20;99.90
21047;DHT22;10682;50.874;3.656;2023-03-21T14:52:08;13.10;99.90
21047;DHT22;10682;50.874;3.656;2023-03-21T14:54:41;13.10;99.90
21047;DHT22;10682;50.874;3.656;2023-03-21T14:57:14;13.10;99.90
21047;DHT22;10682;50.874;3.656;2023-03-21T14:59:47;13.20;99.90
21047;DHT22;10682;50.874;3.656;2023-03-21T15:02:21;13.30;99.90
21047;DHT22;10682;50.874;3.656;2023-03-21T15:04:55;13.30;99.90
21047;DHT22;10682;50.874;3.656;2023-03-21T15:07:30;13.30;99.90
21047;DHT22;10682;50.874;3.656;2023-03-21T15:10:01;13.40;99.90
21047;DHT22;10682;50.874;3.656;2023-03-21T15:12:32;13.50;99.90
21047;DHT22;10682;50.874;3.656;2023-03-21T15:15:00;13.50;99.90
21047;DHT22;10682;50.874;3.656;2023-03-21T15:17:29;13.50;99.90
21047;DHT22;10682;50.874;3.656;2023-03-21T15:19:56;13.60;99.90
21047;DHT22;10682;50.874;3.656;2023-03-21T15:22:33;13.60;99.90
21047;DHT22;10682;50.874;3.656;2023-03-21T15:25:11;13.60;99.90
21047;DHT22;10682;50.874;3.656;2023-03-21T15:27:41;13.70;99.90
21047;DHT22;10682;50.874;3.656;2023-03-21T15:30:19;13.70;99.90
21047;DHT22;10682;50.874;3.656;2023-03-21T15:32:51;13.80;99.90
21047;DHT22;10682;50.874;3.656;2023-03-21T15:35:24;13.80;99.90
21047;DHT22;10682;50.874;3.656;2023-03-21T15:37:56;13.80;99.90
21047;DHT22;10682;50.874;3.656;2023-03-21T15:40:32;13.90;99.90
21047;DHT22;10682;50.874;3.656;2023-03-21T15:43:19;14.00;99.90
21047;DHT22;10682;50.874;3.656;2023-03-21T15:45:51;14.00;99.90
21047;DHT22;10682;50.874;3.656;2023-03-21T15:48:27;13.90;99.90
21047;DHT22;10682;50.874;3.656;2023-03-21T15:51:02;13.90;99.90
21047;DHT22;10682;50.874;3.656;2023-03-21T15:53:32;13.80;99.90
21047;DHT22;10682;50.874;3.656;2023-03-21T15:56:03;13.70;99.90
21047;DHT22;10682;50.874;3.656;2023-03-21T15:58:38;13.70;99.90
21047;DHT22;10682;50.874;3.656;2023-03-21T16:01:20;13.70;99.90
21047;DHT22;10682;50.874;3.656;2023-03-21T16:03:55;13.60;99.90
21047;DHT22;10682;50.874;3.656;2023-03-21T16:06:32;13.60;99.90
21047;DHT22;10682;50.874;3.656;2023-03-21T16:11:43;13.70;99.90
21047;DHT22;10682;50.874;3.656;2023-03-21T16:14:14;13.70;99.90
21047;DHT22;10682;50.874;3.656;2023-03-21T16:16:41;13.70;99.90
21047;DHT22;10682;50.874;3.656;2023-03-21T16:19:08;13.80;99.90
21047;DHT22;10682;50.874;3.656;2023-03-21T16:21:36;13.90;99.90
21047;DHT22;10682;50.874;3.656;2023-03-21T16:24:07;13.90;99.90
21047;DHT22;10682;50.874;3.656;2023-03-21T16:26:41;13.90;99.90
21047;DHT22;10682;50.874;3.656;2023-03-21T16:29:13;14.00;99.90
21047;DHT22;10682;50.874;3.656;2023-03-21T16:31:41;14.00;99.90
21047;DHT22;10682;50.874;3.656;2023-03-21T16:34:09;14.00;99.90
21047;DHT22;10682;50.874;3.656;2023-03-21T16:36:38;14.00;99.90
21047;DHT22;10682;50.874;3.656;2023-03-21T16:39:18;14.00;99.90
21047;DHT22;10682;50.874;3.656;2023-03-21T16:41:47;14.00;99.90
21047;DHT22;10682;50.874;3.656;2023-03-21T16:44:14;14.00;99.90
21047;DHT22;10682;50.874;3.656;2023-03-21T16:46:42;14.00;99.90
21047;DHT22;10682;50.874;3.656;2023-03-21T16:49:23;13.90;99.90
21047;DHT22;10682;50.874;3.656;2023-03-21T16:51:54;13.90;99.90
21047;DHT22;10682;50.874;3.656;2023-03-21T16:54:22;13.90;99.90
21047;DHT22;10682;50.874;3.656;2023-03-21T16:56:52;13.90;99.90
21047;DHT22;10682;50.874;3.656;2023-03-21T16:59:20;13.80;99.90
21047;DHT22;10682;50.874;3.656;2023-03-21T17:01:47;13.80;99.90
21047;DHT22;10682;50.874;3.656;2023-03-21T17:04:16;13.80;99.90
21047;DHT22;10682;50.874;3.656;2023-03-21T17:06:53;13.80;99.90
21047;DHT22;10682;50.874;3.656;2023-03-21T17:09:22;13.80;99.90
21047;DHT22;10682;50.874;3.656;2023-03-21T17:11:52;13.80;99.90
21047;DHT22;10682;50.874;3.656;2023-03-21T17:14:18;13.70;99.90
21047;DHT22;10682;50.874;3.656;2023-03-21T17:16:47;13.70;99.90
21047;DHT22;10682;50.874;3.656;2023-03-21T17:19:16;13.70;99.90
21047;DHT22;10682;50.874;3.656;2023-03-21T17:21:45;13.70;99.90
21047;DHT22;10682;50.874;3.656;2023-03-21T17:24:12;13.60;99.90
21047;DHT22;10682;50.874;3.656;2023-03-21T17:26:39;13.60;99.90
21047;DHT22;10682;50.874;3.656;2023-03-21T17:29:09;13.60;99.90
21047;DHT22;10682;50.874;3.656;2023-03-21T17:31:37;13.60;99.90
21047;DHT22;10682;50.874;3.656;2023-03-21T17:34:05;13.50;99.90
21047;DHT22;10682;50.874;3.656;2023-03-21T17:36:35;13.50;99.90
21047;DHT22;10682;50.874;3.656;2023-03-21T17:39:06;13.50;99.90
21047;DHT22;10682;50.874;3.656;2023-03-21T17:41:34;13.50;99.90
21047;DHT22;10682;50.874;3.656;2023-03-21T17:44:01;13.50;99.90
21047;DHT22;10682;50.874;3.656;2023-03-21T17:46:34;13.40;99.90
21047;DHT22;10682;50.874;3.656;2023-03-21T17:49:03;13.40;99.90
21047;DHT22;10682;50.874;3.656;2023-03-21T17:51:32;13.50;99.90
21047;DHT22;10682;50.874;3.656;2023-03-21T17:53:59;13.50;99.90